Time;durP1;ratioP1;P1;durP2;ratioP2;P2;SDS_P1;SDS_P2;PMS_P1;PMS_P2;Temp;Humidity;BMP_temperature;BMP_pressure;BME280_temperature;BME280_humidity;BME280_pressure;Samples;Min_cycle;Max_cycle;Signal;HPM_P1;HPM_P2
2023/08/28 00:00:48;;;;;;;1.40;1.30;;;22.30;62.20;;;;;;5053475;28;20223;-83
2023/08/28 00:03:15;;;;;;;2.45;1.50;;;22.20;62.00;;;;;;5053767;28;20560;-84
2023/08/28 00:05:42;;;;;;;1.50;1.40;;;22.20;62.20;;;;;;5054825;28;20226;-84
2023/08/28 00:08:10;;;;;;;1.83;1.40;;;22.30;62.20;;;;;;5037652;28;20207;-84
2023/08/28 00:10:40;;;;;;;1.67;1.48;;;22.20;62.20;;;;;;5038036;28;20224;-83
2023/08/28 00:13:07;;;;;;;2.58;1.35;;;22.20;62.20;;;;;;5037479;28;20206;-84
2023/08/28 00:15:34;;;;;;;2.28;1.30;;;22.20;62.00;;;;;;5038114;28;20268;-84
2023/08/28 00:18:01;;;;;;;2.15;1.40;;;22.20;62.20;;;;;;5054920;28;20535;-84
2023/08/28 00:20:29;;;;;;;2.72;1.30;;;22.30;62.30;;;;;;5054888;28;20215;-84
2023/08/28 00:22:55;;;;;;;1.27;1.17;;;22.20;62.10;;;;;;5038511;28;20249;-83
2023/08/28 00:25:23;;;;;;;1.70;1.13;;;22.20;62.00;;;;;;5054792;28;20203;-83
2023/08/28 00:27:51;;;;;;;3.50;1.38;;;22.20;62.00;;;;;;5038560;28;20188;-84
2023/08/28 00:30:18;;;;;;;1.60;1.50;;;22.20;62.10;;;;;;5055085;28;20673;-84
2023/08/28 00:32:45;;;;;;;4.05;1.40;;;22.10;61.90;;;;;;5055266;28;20286;-84
2023/08/28 00:35:13;;;;;;;2.28;1.30;;;22.20;62.20;;;;;;5055089;28;20283;-84
2023/08/28 00:37:42;;;;;;;1.63;1.08;;;22.10;61.90;;;;;;5054269;28;20191;-83
2023/08/28 00:40:13;;;;;;;1.48;1.38;;;22.20;62.00;;;;;;5037552;28;20187;-83
2023/08/28 00:42:41;;;;;;;1.55;1.10;;;22.10;61.90;;;;;;5037880;28;20241;-83
2023/08/28 00:45:10;;;;;;;3.33;1.50;;;22.10;61.90;;;;;;5037801;28;20201;-84
2023/08/28 00:47:38;;;;;;;2.50;1.20;;;22.10;61.90;;;;;;5054091;28;20230;-84
2023/08/28 00:50:06;;;;;;;2.25;1.50;;;22.10;61.90;;;;;;5037198;28;20218;-84
2023/08/28 00:52:33;;;;;;;1.30;1.20;;;22.10;61.90;;;;;;5038065;28;20218;-84
2023/08/28 00:55:00;;;;;;;1.92;1.20;;;22.10;61.90;;;;;;5037084;28;20203;-84
2023/08/28 00:57:28;;;;;;;1.48;1.30;;;22.10;62.00;;;;;;5053396;28;20225;-84
2023/08/28 00:59:56;;;;;;;1.45;1.30;;;22.10;61.90;;;;;;5053204;28;20197;-84
2023/08/28 01:02:25;;;;;;;1.45;1.20;;;22.10;61.90;;;;;;5036838;28;20211;-84
2023/08/28 01:04:53;;;;;;;2.28;1.15;;;22.10;61.90;;;;;;5036995;28;20230;-84
2023/08/28 01:07:21;;;;;;;1.75;1.23;;;22.10;62.00;;;;;;5053541;28;20213;-83
2023/08/28 01:09:55;;;;;;;2.85;1.50;;;22.10;62.00;;;;;;5021781;28;20269;-83
2023/08/28 01:12:25;;;;;;;1.75;1.40;;;22.00;61.90;;;;;;5053723;28;20215;-84
2023/08/28 01:14:57;;;;;;;1.30;1.20;;;22.10;61.90;;;;;;5054473;28;20192;-84
2023/08/28 01:17:26;;;;;;;2.60;1.13;;;22.00;61.90;;;;;;5056880;28;20271;-84
2023/08/28 01:19:54;;;;;;;1.50;1.40;;;22.00;61.80;;;;;;5050540;28;20209;-84
2023/08/28 01:22:23;;;;;;;2.38;1.25;;;22.00;61.80;;;;;;5060388;28;20692;-84
2023/08/28 01:24:53;;;;;;;1.25;1.10;;;21.90;61.80;;;;;;5060941;28;20171;-84
2023/08/28 01:27:22;;;;;;;3.33;1.17;;;22.00;61.80;;;;;;5080628;28;20210;-84
2023/08/28 01:30:05;;;;;;;2.05;1.27;;;22.00;61.70;;;;;;5052963;28;20227;-84
2023/08/28 01:32:32;;;;;;;2.03;1.23;;;22.00;61.80;;;;;;5047574;28;20245;-83
2023/08/28 01:34:59;;;;;;;2.17;1.20;;;22.00;61.80;;;;;;5063670;28;20290;-83
2023/08/28 01:37:28;;;;;;;2.45;1.40;;;22.00;61.80;;;;;;5046255;28;20207;-83
2023/08/28 01:39:54;;;;;;;1.85;1.40;;;22.00;61.80;;;;;;5044313;28;20200;-83
2023/08/28 01:42:23;;;;;;;2.97;1.30;;;22.00;61.80;;;;;;5056499;28;20216;-83
2023/08/28 01:44:54;;;;;;;2.25;1.35;;;21.90;61.60;;;;;;5057372;28;20665;-83
2023/08/28 01:47:22;;;;;;;3.50;1.38;;;21.90;61.70;;;;;;5041035;28;20192;-83
2023/08/28 01:49:48;;;;;;;1.40;1.30;;;21.90;61.70;;;;;;5042744;28;20217;-83
2023/08/28 01:52:16;;;;;;;1.73;1.20;;;22.00;61.80;;;;;;5059892;28;20298;-83
2023/08/28 01:54:43;;;;;;;1.85;1.10;;;21.90;61.60;;;;;;5057620;28;20199;-83
2023/08/28 01:57:11;;;;;;;2.92;1.20;;;21.90;61.60;;;;;;5057410;28;20195;-83
2023/08/28 01:59:39;;;;;;;1.27;1.17;;;21.90;61.60;;;;;;5058643;28;20231;-83
2023/08/28 02:02:07;;;;;;;1.75;1.40;;;21.90;61.60;;;;;;5043173;28;20226;-84
2023/08/28 02:04:34;;;;;;;3.08;1.40;;;21.90;61.60;;;;;;5059888;28;20187;-84
2023/08/28 02:07:01;;;;;;;1.33;1.20;;;21.90;61.60;;;;;;5051524;28;20203;-83
2023/08/28 02:09:29;;;;;;;2.47;1.20;;;21.90;61.50;;;;;;5056703;28;20208;-83
2023/08/28 02:11:56;;;;;;;1.50;1.20;;;21.90;61.50;;;;;;5057934;28;20789;-83
2023/08/28 02:14:23;;;;;;;1.00;1.00;;;21.90;61.60;;;;;;5061267;28;20261;-84
2023/08/28 02:16:51;;;;;;;1.75;1.30;;;21.90;61.40;;;;;;5044660;28;20195;-84
2023/08/28 02:19:18;;;;;;;1.23;1.13;;;21.90;61.50;;;;;;5061119;28;20290;-84
2023/08/28 02:21:45;;;;;;;1.42;1.10;;;21.80;61.50;;;;;;5060696;28;20215;-82
2023/08/28 02:24:12;;;;;;;1.17;1.17;;;21.80;61.30;;;;;;5062349;28;20210;-83
2023/08/28 02:26:40;;;;;;;2.25;1.20;;;21.80;61.50;;;;;;5045550;28;20226;-83
2023/08/28 02:29:07;;;;;;;2.15;1.20;;;21.80;61.40;;;;;;5060780;28;20199;-83
2023/08/28 02:31:34;;;;;;;2.40;1.27;;;21.80;61.40;;;;;;5043427;28;20222;-83
2023/08/28 02:34:02;;;;;;;1.48;1.30;;;21.80;61.40;;;;;;5059909;28;20196;-83
2023/08/28 02:36:30;;;;;;;1.27;1.10;;;21.80;61.50;;;;;;5060050;28;20218;-83
2023/08/28 02:38:57;;;;;;;2.85;1.20;;;21.80;61.40;;;;;;5043024;28;20202;-83
2023/08/28 02:41:24;;;;;;;1.45;1.35;;;21.80;61.40;;;;;;5042471;28;20302;-83
2023/08/28 02:43:51;;;;;;;1.77;1.25;;;21.80;61.40;;;;;;5059627;28;20226;-83
2023/08/28 02:46:18;;;;;;;1.20;1.10;;;21.80;61.40;;;;;;5042622;28;20197;-83
2023/08/28 02:48:45;;;;;;;2.88;1.30;;;21.80;61.50;;;;;;5042324;28;20199;-83
2023/08/28 02:51:13;;;;;;;2.92;1.23;;;21.70;61.40;;;;;;5039796;28;20223;-82
2023/08/28 02:53:40;;;;;;;1.33;1.10;;;21.70;61.30;;;;;;5038591;28;20203;-82
2023/08/28 02:56:19;;;;;;;2.40;1.05;;;21.70;61.20;;;;;;5038231;28;20195;-82
2023/08/28 02:58:45;;;;;;;1.35;0.90;;;21.70;61.20;;;;;;5022305;28;20195;-82
2023/08/28 03:01:12;;;;;;;1.48;1.38;;;21.70;61.20;;;;;;5038856;28;20561;-82
2023/08/28 03:03:39;;;;;;;1.80;1.30;;;21.70;61.20;;;;;;5022796;28;20210;-82
2023/08/28 03:06:07;;;;;;;2.08;1.17;;;21.70;61.10;;;;;;5056247;28;20196;-82
2023/08/28 03:08:35;;;;;;;2.40;1.15;;;21.70;61.00;;;;;;5056921;28;20242;-82
2023/08/28 03:11:02;;;;;;;1.25;1.20;;;21.70;61.00;;;;;;5056923;28;20277;-82
2023/08/28 03:13:29;;;;;;;2.10;1.30;;;21.70;60.80;;;;;;5056874;28;20229;-82
2023/08/28 03:15:56;;;;;;;1.42;1.33;;;21.70;60.60;;;;;;5056266;28;20272;-82
2023/08/28 03:18:24;;;;;;;3.00;1.15;;;21.70;60.40;;;;;;5056569;28;20250;-82
2023/08/28 03:20:52;;;;;;;2.25;1.23;;;21.70;61.10;;;;;;5056264;28;20594;-82
2023/08/28 03:23:19;;;;;;;1.63;1.20;;;21.70;60.20;;;;;;5055610;28;20211;-83
2023/08/28 03:25:47;;;;;;;2.05;1.27;;;21.80;60.40;;;;;;5055187;28;20206;-83
2023/08/28 03:28:14;;;;;;;1.23;1.13;;;21.80;60.40;;;;;;5055381;28;20230;-83
2023/08/28 03:30:41;;;;;;;1.38;1.27;;;21.80;60.30;;;;;;5038372;28;20250;-82
2023/08/28 03:33:09;;;;;;;1.52;1.23;;;21.90;60.10;;;;;;5055334;28;20195;-83
2023/08/28 03:35:36;;;;;;;1.30;1.20;;;21.80;60.00;;;;;;5022329;28;20199;-83
2023/08/28 03:38:03;;;;;;;2.70;1.30;;;21.90;60.20;;;;;;5054796;28;20245;-83
2023/08/28 03:40:31;;;;;;;1.50;1.40;;;22.00;60.00;;;;;;5054425;28;20732;-83
2023/08/28 03:43:00;;;;;;;2.17;1.27;;;22.00;59.70;;;;;;5054800;28;20237;-83
2023/08/28 03:45:27;;;;;;;1.75;1.40;;;22.10;59.90;;;;;;5037855;28;20222;-83
2023/08/28 03:47:55;;;;;;;1.92;1.30;;;22.10;59.70;;;;;;5053933;28;20195;-82
2023/08/28 03:50:22;;;;;;;1.38;1.10;;;22.20;59.70;;;;;;5054297;28;20218;-83
2023/08/28 03:52:49;;;;;;;1.10;1.10;;;22.20;59.60;;;;;;5021276;28;20214;-83
2023/08/28 03:55:18;;;;;;;1.25;1.15;;;22.20;59.40;;;;;;5038580;28;20553;-83
2023/08/28 03:57:45;;;;;;;1.52;1.30;;;22.20;59.30;;;;;;5055549;28;20230;-83
2023/08/28 04:00:15;;;;;;;1.48;1.30;;;22.20;59.30;;;;;;5055946;28;20226;-83
2023/08/28 04:02:43;;;;;;;1.30;1.17;;;22.20;59.20;;;;;;5058234;28;20183;-83
2023/08/28 04:05:11;;;;;;;1.40;1.30;;;22.20;59.20;;;;;;5056031;28;20249;-82
2023/08/28 04:07:38;;;;;;;1.45;1.35;;;22.20;59.00;;;;;;5039152;28;20290;-82
2023/08/28 04:10:06;;;;;;;1.20;1.10;;;22.20;59.10;;;;;;5039010;28;20223;-83
2023/08/28 04:12:33;;;;;;;2.75;1.30;;;22.20;59.10;;;;;;5055914;28;20206;-83
2023/08/28 04:15:02;;;;;;;2.13;1.25;;;22.20;59.10;;;;;;5055974;28;20218;-83
2023/08/28 04:17:33;;;;;;;1.73;1.40;;;22.10;59.10;;;;;;5056345;28;20223;-83
2023/08/28 04:20:08;;;;;;;1.40;1.30;;;22.10;59.20;;;;;;5023383;28;20198;-83
2023/08/28 04:22:36;;;;;;;2.15;1.35;;;22.10;59.30;;;;;;5040274;28;20565;-83
2023/08/28 04:25:03;;;;;;;1.77;1.33;;;22.00;59.40;;;;;;5039697;28;20302;-83
2023/08/28 04:27:31;;;;;;;1.58;1.17;;;22.00;59.60;;;;;;5040290;28;20253;-84
2023/08/28 04:29:58;;;;;;;3.60;1.55;;;22.00;59.50;;;;;;5040982;28;20210;-83
2023/08/28 04:32:25;;;;;;;1.50;1.40;;;22.00;59.50;;;;;;5056413;28;20234;-80
2023/08/28 04:34:54;;;;;;;1.80;1.70;;;21.90;59.50;;;;;;5041233;28;20195;-83
2023/08/28 04:37:21;;;;;;;1.70;1.55;;;22.00;59.80;;;;;;5059060;28;20196;-85
2023/08/28 04:39:49;;;;;;;2.45;1.30;;;21.90;59.90;;;;;;5038288;28;20199;-85
2023/08/28 04:42:16;;;;;;;2.03;1.40;;;21.90;60.50;;;;;;5054232;28;20219;-85
2023/08/28 04:44:43;;;;;;;2.15;1.60;;;21.90;59.60;;;;;;5055309;28;20199;-84
2023/08/28 04:47:10;;;;;;;1.42;1.30;;;21.90;59.70;;;;;;5056832;28;20202;-84
2023/08/28 04:49:38;;;;;;;3.88;1.50;;;21.90;59.90;;;;;;5037327;28;20545;-84
2023/08/28 04:52:07;;;;;;;2.17;1.50;;;21.80;60.40;;;;;;5053737;28;20245;-85
2023/08/28 04:54:34;;;;;;;2.40;1.40;;;21.80;61.00;;;;;;5053045;28;20658;-85
2023/08/28 04:57:01;;;;;;;2.40;1.58;;;21.80;61.00;;;;;;5053592;28;20195;-85
2023/08/28 04:59:29;;;;;;;2.75;1.50;;;21.80;61.00;;;;;;5036448;28;20221;-85
2023/08/28 05:01:57;;;;;;;1.33;1.23;;;21.80;61.10;;;;;;5057738;28;20222;-84
2023/08/28 05:04:24;;;;;;;2.22;1.50;;;21.80;61.00;;;;;;5058024;28;20226;-84
2023/08/28 05:06:51;;;;;;;2.65;1.42;;;21.70;61.30;;;;;;5059165;28;20257;-84
2023/08/28 05:09:20;;;;;;;3.50;1.45;;;21.80;61.60;;;;;;5041138;28;20278;-84
2023/08/28 05:11:47;;;;;;;1.42;1.33;;;21.80;61.70;;;;;;5058773;28;20580;-84
2023/08/28 05:14:14;;;;;;;5.07;1.40;;;21.80;61.60;;;;;;5041381;28;20207;-84
2023/08/28 05:16:41;;;;;;;2.42;1.50;;;21.80;61.70;;;;;;5057322;28;20227;-84
2023/08/28 05:19:08;;;;;;;2.67;1.40;;;21.80;59.90;;;;;;5040310;28;20198;-85
2023/08/28 05:21:35;;;;;;;1.50;1.40;;;21.80;60.00;;;;;;5056866;28;20220;-85
2023/08/28 05:24:02;;;;;;;1.65;1.50;;;21.80;59.10;;;;;;5040008;28;20282;-85
2023/08/28 05:26:31;;;;;;;1.70;1.40;;;21.70;59.00;;;;;;5040109;28;20192;-85
2023/08/28 05:28:58;;;;;;;2.15;1.45;;;21.70;59.60;;;;;;5040144;28;20199;-85
2023/08/28 05:31:26;;;;;;;1.42;1.20;;;21.70;58.90;;;;;;5057947;28;20219;-85
2023/08/28 05:33:54;;;;;;;3.40;1.50;;;21.60;58.80;;;;;;5040646;28;20196;-85
2023/08/28 05:36:21;;;;;;;1.80;1.42;;;21.60;59.50;;;;;;5057834;28;20227;-85
2023/08/28 05:38:48;;;;;;;2.20;1.27;;;21.60;58.90;;;;;;5057740;28;20273;-85
2023/08/28 05:41:16;;;;;;;3.70;1.50;;;21.60;59.00;;;;;;5041080;28;20214;-82
2023/08/28 05:43:48;;;;;;;3.25;1.50;;;21.50;58.90;;;;;;5041162;28;20199;-82
2023/08/28 05:46:15;;;;;;;1.75;1.30;;;21.50;58.90;;;;;;5040335;28;20286;-82
2023/08/28 05:48:42;;;;;;;1.98;1.33;;;21.50;59.20;;;;;;5040900;28;20203;-82
2023/08/28 05:51:10;;;;;;;4.00;1.50;;;21.50;59.10;;;;;;5042857;28;20311;-82
2023/08/28 05:53:37;;;;;;;5.38;1.60;;;21.50;59.30;;;;;;5056518;28;20676;-82
2023/08/28 05:56:04;;;;;;;2.20;1.60;;;21.50;59.60;;;;;;5138075;22;20236;-79
2023/08/28 05:58:32;;;;;;;1.48;1.38;;;21.50;59.90;;;;;;5052022;28;20671;-79
2023/08/28 06:01:01;;;;;;;1.75;1.40;;;21.40;60.00;;;;;;5056683;28;20702;-80
2023/08/28 06:03:28;;;;;;;2.33;1.40;;;21.50;60.10;;;;;;5035806;28;20211;-80
2023/08/28 06:05:56;;;;;;;1.67;1.45;;;21.50;60.60;;;;;;5036107;28;20206;-80
2023/08/28 06:08:23;;;;;;;1.70;1.60;;;21.50;60.60;;;;;;5052415;28;20601;-80
2023/08/28 06:10:51;;;;;;;1.50;1.40;;;21.50;60.50;;;;;;5035438;28;20231;-80
2023/08/28 06:13:17;;;;;;;2.35;1.50;;;21.50;60.50;;;;;;5036409;28;20211;-80
2023/08/28 06:15:45;;;;;;;1.98;1.42;;;21.50;60.60;;;;;;5035513;28;20294;-80
2023/08/28 06:18:14;;;;;;;2.35;1.50;;;21.50;60.50;;;;;;5036106;28;20265;-80
2023/08/28 06:20:40;;;;;;;4.25;1.60;;;21.60;60.60;;;;;;5036134;28;20220;-80
2023/08/28 06:23:08;;;;;;;2.13;1.55;;;21.60;60.50;;;;;;5035093;28;20208;-80
2023/08/28 06:25:35;;;;;;;1.50;1.40;;;21.60;60.50;;;;;;5051971;28;20200;-80
2023/08/28 06:28:02;;;;;;;1.98;1.60;;;21.60;60.50;;;;;;5035377;28;20196;-80
2023/08/28 06:30:30;;;;;;;1.73;1.25;;;21.60;60.60;;;;;;5104903;22;20242;-80
2023/08/28 06:32:58;;;;;;;2.22;1.48;;;21.60;60.60;;;;;;5042909;28;20196;-81
2023/08/28 06:35:27;;;;;;;1.60;1.50;;;21.70;60.70;;;;;;5041348;28;20290;-81
2023/08/28 06:37:54;;;;;;;2.42;1.90;;;21.70;60.70;;;;;;5040419;28;20206;-81
2023/08/28 06:40:21;;;;;;;1.67;1.55;;;21.70;60.70;;;;;;5040176;28;20200;-81
2023/08/28 06:42:48;;;;;;;2.47;1.90;;;21.70;60.70;;;;;;5040828;28;20199;-81
2023/08/28 06:45:15;;;;;;;2.53;1.75;;;21.70;60.70;;;;;;5040119;28;20203;-81
2023/08/28 06:47:42;;;;;;;1.80;1.70;;;21.70;60.80;;;;;;5040438;28;20207;-81
2023/08/28 06:50:10;;;;;;;4.57;1.83;;;21.70;60.80;;;;;;5040837;28;20195;-81
2023/08/28 06:52:39;;;;;;;1.92;1.80;;;21.80;60.90;;;;;;5040055;28;20216;-81
2023/08/28 06:55:07;;;;;;;1.95;1.85;;;21.70;60.80;;;;;;5039792;28;20207;-81
2023/08/28 06:57:34;;;;;;;2.38;2.00;;;21.80;60.80;;;;;;5039674;28;20196;-82
2023/08/28 07:00:01;;;;;;;2.85;2.00;;;21.80;60.70;;;;;;5039327;28;20196;-82
2023/08/28 07:02:30;;;;;;;3.22;1.83;;;21.80;60.70;;;;;;5039607;28;20193;-82
2023/08/28 07:04:57;;;;;;;3.65;2.00;;;21.90;60.80;;;;;;5040024;28;20204;-82
2023/08/28 07:07:24;;;;;;;1.85;1.70;;;21.90;60.80;;;;;;5039703;28;20201;-82
2023/08/28 07:09:52;;;;;;;2.85;1.80;;;21.90;60.80;;;;;;5040472;28;20194;-82
2023/08/28 07:12:19;;;;;;;3.45;2.00;;;21.90;60.80;;;;;;5040167;28;20220;-82
2023/08/28 07:14:56;;;;;;;2.35;2.15;;;21.90;60.70;;;;;;5039297;28;20200;-82
2023/08/28 07:17:24;;;;;;;2.40;2.20;;;21.90;60.70;;;;;;5038214;28;20298;-81
2023/08/28 07:19:51;;;;;;;2.65;2.42;;;21.90;60.60;;;;;;5034698;28;20196;-82
2023/08/28 07:22:18;;;;;;;2.15;1.88;;;21.90;60.70;;;;;;5033729;28;20243;-81
2023/08/28 07:24:45;;;;;;;2.63;2.20;;;21.90;60.80;;;;;;5034260;28;20203;-81
2023/08/28 07:27:13;;;;;;;3.10;2.13;;;21.90;60.80;;;;;;5034371;28;20206;-82
2023/08/28 07:29:40;;;;;;;3.85;2.28;;;21.90;61.40;;;;;;5034788;28;20674;-82
2023/08/28 07:32:07;;;;;;;2.30;2.10;;;21.90;60.70;;;;;;5034145;28;20670;-82
2023/08/28 07:34:34;;;;;;;2.83;2.17;;;21.90;60.60;;;;;;5034377;28;20200;-81
2023/08/28 07:37:01;;;;;;;2.33;2.08;;;21.90;60.70;;;;;;5034530;28;20322;-82
2023/08/28 07:39:28;;;;;;;4.88;2.05;;;21.90;60.80;;;;;;5034282;28;20216;-82
2023/08/28 07:41:55;;;;;;;2.25;2.05;;;21.90;60.80;;;;;;5034008;28;20682;-82
2023/08/28 07:44:24;;;;;;;2.15;1.98;;;21.90;60.90;;;;;;5034147;28;20208;-82
2023/08/28 07:46:51;;;;;;;4.38;2.17;;;21.90;60.80;;;;;;5034165;28;20621;-82
2023/08/28 07:49:18;;;;;;;1.85;1.75;;;22.00;61.00;;;;;;5033949;28;20636;-82
2023/08/28 07:51:46;;;;;;;1.88;1.67;;;22.00;61.10;;;;;;5017703;28;20594;-82
2023/08/28 07:54:13;;;;;;;1.83;1.70;;;22.00;61.00;;;;;;5034344;28;20635;-82
2023/08/28 07:56:40;;;;;;;1.73;1.60;;;22.00;60.70;;;;;;5017842;28;20742;-82
2023/08/28 07:59:07;;;;;;;2.15;1.83;;;22.10;60.70;;;;;;5033951;28;20714;-81
2023/08/28 08:01:37;;;;;;;1.63;1.50;;;22.10;60.70;;;;;;5033719;28;20223;-83
2023/08/28 08:04:05;;;;;;;2.00;1.80;;;22.10;60.70;;;;;;5034823;28;20206;-82
2023/08/28 08:06:32;;;;;;;2.67;1.80;;;22.10;60.70;;;;;;5033668;28;20643;-82
2023/08/28 08:08:59;;;;;;;1.73;1.63;;;22.20;60.70;;;;;;5017593;28;20200;-82
2023/08/28 08:11:26;;;;;;;1.75;1.65;;;22.10;60.50;;;;;;5034989;28;20220;-82
2023/08/28 08:13:53;;;;;;;2.50;1.70;;;22.20;60.60;;;;;;5034609;28;20203;-82
2023/08/28 08:16:21;;;;;;;2.00;1.80;;;22.20;60.60;;;;;;5034387;28;20232;-82
2023/08/28 08:18:49;;;;;;;2.63;1.77;;;22.20;60.50;;;;;;5033781;28;20192;-82
2023/08/28 08:21:16;;;;;;;1.90;1.60;;;22.20;60.40;;;;;;5033303;28;20721;-82
2023/08/28 08:23:43;;;;;;;1.92;1.50;;;22.30;60.50;;;;;;5034105;28;20733;-82
2023/08/28 08:26:10;;;;;;;1.75;1.65;;;22.30;60.50;;;;;;5034248;28;20193;-82
2023/08/28 08:28:38;;;;;;;2.67;1.70;;;22.30;60.40;;;;;;5034029;28;20701;-82
2023/08/28 08:31:05;;;;;;;1.67;1.58;;;22.30;60.30;;;;;;5033979;28;20243;-82
2023/08/28 08:33:32;;;;;;;1.50;1.40;;;22.30;60.30;;;;;;5033911;28;20195;-82
2023/08/28 08:36:00;;;;;;;1.60;1.50;;;22.40;60.20;;;;;;5034032;28;20253;-82
2023/08/28 08:38:28;;;;;;;1.83;1.60;;;22.40;60.10;;;;;;5034196;28;20561;-82
2023/08/28 08:40:55;;;;;;;2.40;1.80;;;22.50;60.20;;;;;;5033464;28;20208;-82
2023/08/28 08:43:23;;;;;;;2.17;1.40;;;22.50;60.20;;;;;;5034261;28;20230;-82
2023/08/28 08:45:50;;;;;;;1.83;1.70;;;22.50;60.00;;;;;;5018109;28;20192;-82
2023/08/28 08:48:20;;;;;;;2.20;1.70;;;22.60;59.90;;;;;;5034507;28;20615;-82
2023/08/28 08:50:48;;;;;;;2.78;1.67;;;22.60;59.80;;;;;;5034359;28;20692;-82
2023/08/28 08:53:21;;;;;;;1.67;1.58;;;22.60;59.70;;;;;;5036903;28;20224;-82
2023/08/28 08:55:49;;;;;;;1.67;1.45;;;22.70;59.80;;;;;;5036817;28;20188;-82
2023/08/28 08:58:16;;;;;;;1.65;1.55;;;22.70;59.80;;;;;;5036341;28;20196;-81
2023/08/28 09:00:44;;;;;;;1.58;1.45;;;22.70;59.70;;;;;;5036615;28;20562;-81
2023/08/28 09:03:12;;;;;;;1.50;1.40;;;22.60;59.50;;;;;;5036474;28;20196;-81
2023/08/28 09:05:39;;;;;;;2.40;1.65;;;22.70;59.60;;;;;;5020408;28;20219;-81
2023/08/28 09:08:06;;;;;;;1.60;1.50;;;22.70;59.60;;;;;;5035595;28;20203;-81
2023/08/28 09:10:35;;;;;;;2.13;1.80;;;22.70;60.20;;;;;;5034128;28;20699;-81
2023/08/28 09:13:04;;;;;;;2.30;1.70;;;22.80;59.40;;;;;;5032906;28;20227;-81
2023/08/28 09:15:31;;;;;;;2.45;1.50;;;22.80;59.10;;;;;;5033978;28;20257;-81
2023/08/28 09:18:00;;;;;;;2.70;1.48;;;22.80;59.20;;;;;;5016269;28;20199;-81
2023/08/28 09:20:27;;;;;;;1.90;1.58;;;22.80;59.20;;;;;;5033303;28;20225;-82
2023/08/28 09:22:54;;;;;;;2.35;1.50;;;22.90;59.20;;;;;;5034242;28;20647;-82
2023/08/28 09:25:22;;;;;;;2.03;1.45;;;22.90;59.20;;;;;;5036360;28;20295;-82
2023/08/28 09:27:52;;;;;;;1.67;1.40;;;22.90;59.20;;;;;;5035946;28;20648;-82
2023/08/28 09:30:30;;;;;;;2.10;1.30;;;22.90;59.20;;;;;;5032826;28;20212;-82
2023/08/28 09:32:58;;;;;;;1.40;1.30;;;22.90;59.10;;;;;;5033138;28;20220;-82
2023/08/28 09:35:26;;;;;;;1.67;1.40;;;22.90;59.00;;;;;;5033686;28;20212;-82
2023/08/28 09:37:57;;;;;;;1.30;1.20;;;23.00;59.00;;;;;;5033085;28;20212;-82
2023/08/28 09:40:29;;;;;;;2.03;1.40;;;23.00;59.00;;;;;;5032506;28;20716;-82
2023/08/28 09:42:58;;;;;;;1.60;1.50;;;23.00;58.90;;;;;;5033080;28;20738;-82
2023/08/28 09:45:30;;;;;;;2.25;1.40;;;23.00;59.40;;;;;;5033695;28;20203;-82
2023/08/28 09:47:57;;;;;;;1.52;1.42;;;23.00;58.80;;;;;;5037521;28;20202;-82
2023/08/28 09:50:26;;;;;;;2.47;1.40;;;23.10;58.70;;;;;;5036489;28;20690;-83
2023/08/28 09:52:53;;;;;;;1.75;1.30;;;23.10;58.70;;;;;;5036432;28;20268;-82
2023/08/28 09:55:20;;;;;;;2.58;1.40;;;23.10;58.50;;;;;;5036920;28;20211;-82
2023/08/28 09:57:49;;;;;;;2.05;1.50;;;23.10;58.50;;;;;;5035952;28;20197;-82
2023/08/28 10:00:18;;;;;;;1.38;1.27;;;23.20;57.70;;;;;;5035999;28;20200;-83
2023/08/28 10:02:46;;;;;;;1.40;1.30;;;23.20;58.00;;;;;;5052721;28;20283;-83
2023/08/28 10:05:13;;;;;;;1.40;1.30;;;23.30;57.90;;;;;;5019464;28;20210;-82
2023/08/28 10:07:40;;;;;;;1.60;1.50;;;23.40;57.90;;;;;;5098292;22;20232;-82
2023/08/28 10:10:07;;;;;;;1.95;1.38;;;23.50;57.70;;;;;;5036212;28;20200;-82
2023/08/28 10:12:35;;;;;;;1.95;1.42;;;23.50;57.50;;;;;;5035585;28;20208;-82
2023/08/28 10:15:04;;;;;;;1.50;1.40;;;23.60;57.40;;;;;;5036305;28;20200;-81
2023/08/28 10:17:32;;;;;;;1.10;1.10;;;23.60;57.40;;;;;;5036162;28;20192;-81
2023/08/28 10:20:00;;;;;;;1.63;1.30;;;23.60;57.30;;;;;;5036874;28;20204;-81
2023/08/28 10:22:27;;;;;;;1.58;1.30;;;23.70;57.20;;;;;;5036357;28;20224;-82
2023/08/28 10:24:57;;;;;;;2.88;1.27;;;23.80;57.10;;;;;;5035903;28;20196;-82
2023/08/28 10:27:24;;;;;;;1.60;1.27;;;23.80;56.80;;;;;;5037078;28;20203;-82
2023/08/28 10:29:51;;;;;;;1.42;1.33;;;23.80;56.90;;;;;;5035498;28;20223;-82
2023/08/28 10:32:18;;;;;;;1.40;1.30;;;23.80;56.60;;;;;;5035455;28;20588;-82
2023/08/28 10:34:47;;;;;;;1.40;1.20;;;23.70;56.80;;;;;;5035703;28;20207;-82
2023/08/28 10:37:14;;;;;;;1.40;1.30;;;23.80;56.90;;;;;;5035314;28;20254;-82
2023/08/28 10:39:42;;;;;;;1.50;1.40;;;23.80;57.60;;;;;;5035108;28;20614;-82
2023/08/28 10:42:09;;;;;;;1.42;1.33;;;23.80;56.80;;;;;;5035285;28;20216;-82
2023/08/28 10:44:36;;;;;;;1.10;1.10;;;23.80;56.70;;;;;;5035875;28;20204;-82
2023/08/28 10:47:03;;;;;;;1.30;1.20;;;23.80;56.70;;;;;;5035172;28;20203;-82
2023/08/28 10:49:30;;;;;;;1.38;1.27;;;23.70;56.60;;;;;;5035094;28;20503;-82
2023/08/28 10:52:03;;;;;;;1.88;1.30;;;23.80;56.80;;;;;;5035076;28;20224;-82
2023/08/28 10:54:40;;;;;;;1.30;1.20;;;23.70;56.70;;;;;;5035755;28;20200;-82
2023/08/28 10:57:10;;;;;;;1.05;1.05;;;23.70;56.80;;;;;;5034864;28;20246;-82
2023/08/28 10:59:44;;;;;;;1.98;1.33;;;23.70;56.80;;;;;;5035164;28;20199;-82
2023/08/28 11:02:11;;;;;;;1.20;1.10;;;23.70;56.40;;;;;;5035893;28;20224;-82
2023/08/28 11:04:39;;;;;;;1.17;1.10;;;23.60;56.70;;;;;;5034851;28;20210;-82
2023/08/28 11:07:30;;;;;;;1.48;1.13;;;23.60;56.50;;;;;;5035167;28;20253;-82
2023/08/28 11:10:16;;;;;;;1.48;1.20;;;23.80;57.00;;;;;;5035178;28;20291;-82
2023/08/28 11:12:50;;;;;;;0.93;0.93;;;23.80;56.50;;;;;;5036023;28;20212;-82
2023/08/28 11:15:26;;;;;;;1.13;1.02;;;23.80;56.80;;;;;;5035329;28;20199;-82
2023/08/28 11:18:15;;;;;;;1.30;1.20;;;23.80;56.60;;;;;;5037162;28;20630;-82
2023/08/28 11:20:42;;;;;;;1.02;1.00;;;23.80;56.50;;;;;;5036741;28;20220;-82
2023/08/28 11:23:10;;;;;;;1.45;1.33;;;23.70;56.50;;;;;;5035941;28;20203;-82
2023/08/28 11:25:38;;;;;;;1.30;1.20;;;23.80;56.10;;;;;;5035200;28;20196;-81
2023/08/28 11:28:05;;;;;;;1.33;1.20;;;23.80;56.40;;;;;;5034588;28;20246;-81
2023/08/28 11:30:33;;;;;;;1.30;1.20;;;23.80;55.90;;;;;;5034662;28;20218;-81
2023/08/28 11:33:00;;;;;;;1.58;1.15;;;23.80;56.00;;;;;;5034689;28;20556;-81
2023/08/28 11:35:27;;;;;;;1.33;1.20;;;23.90;55.50;;;;;;5035305;28;20253;-81
2023/08/28 11:37:55;;;;;;;1.20;1.10;;;23.90;55.30;;;;;;5034404;28;20207;-81
2023/08/28 11:40:24;;;;;;;1.33;1.20;;;23.90;55.50;;;;;;5034983;28;20199;-81
2023/08/28 11:43:03;;;;;;;1.25;1.15;;;23.90;55.30;;;;;;5034297;28;20192;-81
2023/08/28 11:45:30;;;;;;;1.50;1.13;;;24.00;55.70;;;;;;5034181;28;20262;-81
2023/08/28 11:47:59;;;;;;;1.10;1.10;;;24.00;55.40;;;;;;5034791;28;20253;-81
2023/08/28 11:50:26;;;;;;;1.10;1.00;;;24.00;55.30;;;;;;5034013;28;20238;-81
2023/08/28 11:52:54;;;;;;;1.20;1.10;;;24.00;55.30;;;;;;5033810;28;20298;-81
2023/08/28 11:55:22;;;;;;;2.22;1.45;;;24.00;54.80;;;;;;5033663;28;20701;-81
2023/08/28 11:57:51;;;;;;;1.20;1.10;;;24.00;54.70;;;;;;5033778;28;20299;-81
2023/08/28 12:00:18;;;;;;;1.02;1.02;;;24.00;55.60;;;;;;5033483;28;20258;-81
2023/08/28 12:02:46;;;;;;;1.20;1.10;;;24.00;55.80;;;;;;5033466;28;20666;-81
2023/08/28 12:05:15;;;;;;;1.30;1.20;;;24.00;55.90;;;;;;5034980;28;20558;-81
2023/08/28 12:07:43;;;;;;;1.10;1.10;;;24.00;55.90;;;;;;5033794;28;20644;-81
2023/08/28 12:10:10;;;;;;;1.25;1.17;;;24.00;55.90;;;;;;5032438;28;20203;-81
2023/08/28 12:12:38;;;;;;;1.10;1.00;;;24.00;56.00;;;;;;5033454;28;20216;-81
2023/08/28 12:15:08;;;;;;;1.05;1.05;;;24.00;56.00;;;;;;5033290;28;20567;-81
2023/08/28 12:17:34;;;;;;;1.23;1.13;;;23.90;55.90;;;;;;5033334;28;20643;-81
2023/08/28 12:20:04;;;;;;;1.02;0.95;;;23.90;55.90;;;;;;5034405;28;20202;-82
2023/08/28 12:22:32;;;;;;;1.10;1.08;;;23.90;55.90;;;;;;5033373;28;20199;-82
2023/08/28 12:24:59;;;;;;;2.22;1.13;;;23.90;56.10;;;;;;5033179;28;20254;-81
2023/08/28 12:27:27;;;;;;;1.52;1.20;;;23.80;56.10;;;;;;5017512;28;20199;-82
2023/08/28 12:29:56;;;;;;;1.65;1.20;;;23.80;56.20;;;;;;5033410;28;20681;-82
2023/08/28 12:32:23;;;;;;;1.40;1.30;;;23.80;56.20;;;;;;5033022;28;20239;-82
2023/08/28 12:34:50;;;;;;;1.17;1.08;;;23.80;56.20;;;;;;5032935;28;20203;-81
2023/08/28 12:37:18;;;;;;;1.05;1.02;;;23.80;56.40;;;;;;5047798;28;20218;-82
2023/08/28 12:39:46;;;;;;;1.17;1.08;;;23.80;56.40;;;;;;5057739;28;20215;-81
2023/08/28 12:42:13;;;;;;;1.10;1.00;;;23.70;56.20;;;;;;5057717;28;20196;-82
2023/08/28 12:44:41;;;;;;;1.17;1.10;;;23.80;56.40;;;;;;5042418;28;20659;-81
2023/08/28 12:47:10;;;;;;;1.10;1.10;;;23.80;56.40;;;;;;5033939;28;20196;-82
2023/08/28 12:49:37;;;;;;;1.10;1.00;;;23.80;56.40;;;;;;5033462;28;20222;-81
2023/08/28 12:52:05;;;;;;;1.10;1.08;;;23.80;56.40;;;;;;5033361;28;20572;-81